Kingston Norman Rogers Airport
CYGK : now visible

Airfield :











YOU CAN JOIN US ON...

 
LOGIN :

Register | Disclaimer

   EN    FR    IT 

 









Legend :    VFR   Marginal VFR   IFR   Intensive IFR   Very Intensive IFR
Visi :
Ceiling :
>= 8 km
>= 3000ft
5 to 8 km
1000 to 3000 ft
1500m to 5 km
500 to 1000 ft
800 to 1500m
200 to 500 ft
< 800m
< 200 ft
Symbols :   Thunderstorms  Fog  Heavy snow  Heavy precipitations  Wind > 20 kt







- Airport Elevation : 305 ft
- IATA code : YGK


CYGK - Kingston Norman Rogers

CURRENT METAR :
  • 162200Z 19006KT 15SM FEW120 FEW250 18/10 A3010 RMK AC1CI1 CI TR SLP196 DENSITY ALT 600FT

EXPIRED METARs :
  • 162100Z 19007KT 15SM FEW120 FEW250 19/10 A3009 RMK AC2CI1 CI TR SLP193 DENSITY ALT 700FT
  • 162000Z 21009KT 15SM FEW130 SCT250 19/10 A3010 RMK AC2CI1 SLP196 DENSITY ALT 600FT

TAF TAF CYGK
Valid from the 16 at 20:00 until the 17 at 03:00 UTC


161938Z 1620/1703 18008KT P6SM FEW020 SCT130
BECMG 1623/1701 VRB03KT RMK NXT FCST WILL BE ISSUED AT 171145Z
No reported NOTAMs for that airfield.



MET'MAP, your aeronautical weather chart ! - Copyright ORBIFLY December 2007 - Disclaimer

ORBIFLY MET'MAP TEAM :

Programming & Development : Alexandra Zaïnal
Concept & Development : Baudouin d'Aumeries
Co-Development & Prog : Marc-Olivier Méhu
Technical & hardware support : Manuel Goepfert

Contact : metmap@orbifly.com




SOURCES & CREDITS :

   NOAA       Earth
Advisory